createdAt,value
2024-01-06T00:00:01.895Z,100158.03
2024-01-06T00:01:07.194Z,100155.44
2024-01-06T00:02:10.534Z,100158.91
2024-01-06T00:03:13.981Z,100159.74
2024-01-06T00:04:21.128Z,100170.15
2024-01-06T00:05:30.385Z,100173.59
2024-01-06T00:06:35.453Z,100177.05
2024-01-06T00:07:41.514Z,100179.64
2024-01-06T00:08:51.491Z,100178.78
2024-01-06T00:09:59.984Z,100181.39
2024-01-06T00:11:05.216Z,100179.66
2024-01-06T00:12:08.129Z,100178.78
2024-01-06T00:13:14.888Z,100175.31
2024-01-06T00:14:18.772Z,100176.16
2024-01-06T00:15:25.333Z,100162.34
2024-01-06T00:16:29.788Z,100169.23
2024-01-06T00:17:34.149Z,100166.66
2024-01-06T00:18:40.481Z,100183.98
2024-01-06T00:19:47.113Z,100182.23
2024-01-06T00:20:52.668Z,100173.59
2024-01-06T00:21:56.285Z,100182.23
2024-01-06T00:23:01.968Z,100182.20
2024-01-06T00:24:13.677Z,100187.42
2024-01-06T00:25:19.828Z,100184.84
2024-01-06T00:26:24.692Z,100189.19
2024-01-06T00:27:30.075Z,100184.86
2024-01-06T00:28:41.847Z,100184.00
2024-01-06T00:29:45.041Z,100189.22
2024-01-06T00:30:54.333Z,100188.34
2024-01-06T00:31:58.037Z,100189.23
2024-01-06T00:33:04.026Z,100184.03
2024-01-06T00:34:09.012Z,100181.45
2024-01-06T00:35:13.192Z,100181.45
2024-01-06T00:36:21.489Z,100187.52
2024-01-06T00:37:32.325Z,100197.89
2024-01-06T00:38:38.409Z,100187.52
2024-01-06T00:39:48.147Z,100191.02
2024-01-06T00:41:01.272Z,100194.48
2024-01-06T00:42:05.910Z,100200.59
2024-01-06T00:43:10.494Z,100205.77
2024-01-06T00:44:14.760Z,100206.67
2024-01-06T00:45:22.858Z,100204.95
2024-01-06T00:46:26.972Z,100202.35
2024-01-06T00:47:33.764Z,100204.96
2024-01-06T00:48:39.816Z,100203.23
2024-01-06T00:49:46.161Z,100204.11
2024-01-06T00:50:53.004Z,100210.16
2024-01-06T00:51:57.651Z,100211.05
2024-01-06T00:53:05.376Z,100215.37
2024-01-06T00:54:08.408Z,100214.53
2024-01-06T00:55:16.186Z,100211.92
2024-01-06T00:56:21.482Z,100214.53
2024-01-06T00:57:24.721Z,100210.23
2024-01-06T00:58:27.489Z,100210.25
2024-01-06T00:59:32.144Z,100218.03
2024-01-06T01:00:38.345Z,100212.86
2024-01-06T01:01:41.875Z,100218.05
2024-01-06T01:02:45.989Z,100218.07
2024-01-06T01:03:52.499Z,100212.89
2024-01-06T01:04:58.906Z,100218.95
2024-01-06T01:06:03.757Z,100218.08
2024-01-06T01:07:10.161Z,100221.55
2024-01-06T01:08:13.379Z,100218.95
2024-01-06T01:09:17.872Z,100208.58
2024-01-06T01:10:41.115Z,100194.74
2024-01-06T01:11:44.446Z,100195.64
2024-01-06T01:12:51.281Z,100196.53
2024-01-06T01:13:57.607Z,100191.33
2024-01-06T01:15:04.145Z,100193.92
2024-01-06T01:16:07.269Z,100199.14
2024-01-06T01:17:13.229Z,100205.19
2024-01-06T01:18:18.273Z,100201.73
2024-01-06T01:19:22.209Z,100206.09
2024-01-06T01:20:25.718Z,100196.55
2024-01-06T01:21:32.793Z,100193.97
2024-01-06T01:22:41.218Z,100194.02
2024-01-06T01:23:52.469Z,100195.73
2024-01-06T01:24:57.805Z,100194.00
2024-01-06T01:26:04.239Z,100183.61
2024-01-06T01:27:12.414Z,100182.74
2024-01-06T01:28:19.712Z,100178.41
2024-01-06T01:29:22.845Z,100177.56
2024-01-06T01:30:29.077Z,100179.30
2024-01-06T01:31:35.999Z,100180.17
2024-01-06T01:32:40.011Z,100175.84
2024-01-06T01:33:45.200Z,100172.37
2024-01-06T01:34:51.750Z,100168.92
2024-01-06T01:35:55.300Z,100165.45
2024-01-06T01:36:59.081Z,100171.50
2024-01-06T01:38:03.204Z,100163.70
2024-01-06T01:39:05.513Z,100161.08
2024-01-06T01:40:21.038Z,100157.61
2024-01-06T01:41:25.250Z,100165.36
2024-01-06T01:42:38.412Z,100164.48
2024-01-06T01:43:40.935Z,100158.39
2024-01-06T01:44:49.857Z,100163.56
2024-01-06T01:45:56.921Z,100158.36
2024-01-06T01:47:01.023Z,100153.16
2024-01-06T01:48:05.663Z,100147.97
2024-01-06T01:49:19.368Z,100142.76
2024-01-06T01:50:26.058Z,100153.17
2024-01-06T01:51:31.853Z,100154.88
2024-01-06T01:52:38.889Z,100151.39
2024-01-06T01:53:42.708Z,100144.47
2024-01-06T01:54:50.532Z,100144.45
2024-01-06T01:55:55.362Z,100140.97
2024-01-06T01:57:05.288Z,100144.45
2024-01-06T01:58:13.832Z,100137.52
2024-01-06T01:59:20.610Z,100142.72
2024-01-06T02:00:27.973Z,100139.28
2024-01-06T02:01:38.952Z,100144.47
2024-01-06T02:02:46.040Z,100149.66
2024-01-06T02:03:55.179Z,100141.90
2024-01-06T02:05:06.402Z,100131.48
2024-01-06T02:06:13.419Z,100130.63
2024-01-06T02:07:18.179Z,100137.58
2024-01-06T02:08:21.932Z,100141.91
2024-01-06T02:09:25.978Z,100147.97
2024-01-06T02:10:30.443Z,100150.59
2024-01-06T02:11:35.175Z,100147.11
2024-01-06T02:12:39.964Z,100142.79
2024-01-06T02:13:42.865Z,100141.08
2024-01-06T02:14:47.935Z,100147.13
2024-01-06T02:15:56.622Z,100154.94
2024-01-06T02:17:02.742Z,100148.02
2024-01-06T02:18:07.353Z,100148.89
2024-01-06T02:19:15.696Z,100148.05
2024-01-06T02:20:25.945Z,100146.33
2024-01-06T02:21:34.709Z,100143.71
2024-01-06T02:22:43.467Z,100135.93
2024-01-06T02:23:51.045Z,100140.27
2024-01-06T02:24:57.967Z,100140.25
2024-01-06T02:27:27.165Z,100133.35
2024-01-06T02:30:01.172Z,100131.61
2024-01-06T02:31:05.993Z,100132.49
2024-01-06T02:32:08.668Z,100132.49
2024-01-06T02:33:16.667Z,100126.45
2024-01-06T02:34:23.817Z,100124.72
2024-01-06T02:35:28.108Z,100123.86
2024-01-06T02:36:41.407Z,100120.41
2024-01-06T02:37:45.957Z,100110.02
2024-01-06T02:38:52.620Z,100113.47
2024-01-06T02:39:59.628Z,100109.14
2024-01-06T02:41:03.286Z,100106.56
2024-01-06T02:42:17.777Z,100109.16
2024-01-06T02:43:22.307Z,100101.37
2024-01-06T02:44:26.627Z,100102.25
2024-01-06T02:45:47.757Z,100102.27
2024-01-06T02:46:52.380Z,100094.47
2024-01-06T02:48:01.331Z,100094.47
2024-01-06T02:49:07.336Z,100091.00
2024-01-06T02:50:13.314Z,100087.53
2024-01-06T02:51:18.950Z,100092.73
2024-01-06T02:52:22.561Z,100093.61
2024-01-06T02:53:29.979Z,100087.55
2024-01-06T02:54:45.370Z,100091.02
2024-01-06T02:55:54.994Z,100091.87
2024-01-06T02:56:59.738Z,100091.88
2024-01-06T02:58:05.413Z,100098.81
2024-01-06T02:59:12.636Z,100102.25
2024-01-06T03:00:20.698Z,100110.05
2024-01-06T03:01:24.283Z,100104.00
2024-01-06T03:02:29.841Z,100095.34
2024-01-06T03:03:33.648Z,100094.50
2024-01-06T03:04:40.416Z,100091.92
2024-01-06T03:05:53.419Z,100087.58
2024-01-06T03:06:56.671Z,100096.23
2024-01-06T03:08:03.281Z,100103.16
2024-01-06T03:09:07.848Z,100101.42
2024-01-06T03:10:12.916Z,100098.82
2024-01-06T03:11:33.474Z,100094.50
2024-01-06T03:12:47.247Z,100097.10
2024-01-06T03:13:52.334Z,100099.72
2024-01-06T03:14:58.519Z,100100.58
2024-01-06T03:16:14.974Z,100102.32
2024-01-06T03:17:20.453Z,100107.52
2024-01-06T03:20:05.421Z,100100.61
2024-01-06T03:21:23.117Z,100104.93
2024-01-06T03:22:27.906Z,100098.00
2024-01-06T03:23:34.700Z,100097.15
2024-01-06T03:24:56.752Z,100082.41
2024-01-06T03:26:01.005Z,100090.22
2024-01-06T03:27:04.814Z,100088.47
2024-01-06T03:28:10.862Z,100096.27
2024-01-06T03:29:21.718Z,100097.15
2024-01-06T03:30:24.449Z,100093.69
2024-01-06T03:31:30.204Z,100085.03
2024-01-06T03:32:41.438Z,100079.80
2024-01-06T03:33:47.366Z,100077.20
2024-01-06T03:34:50.028Z,100074.62
2024-01-06T03:35:58.116Z,100070.28
2024-01-06T03:37:02.101Z,100076.33
2024-01-06T03:38:08.111Z,100068.52
2024-01-06T03:39:19.327Z,100070.26
2024-01-06T03:40:26.480Z,100064.19
2024-01-06T03:41:29.166Z,100063.33
2024-01-06T03:42:32.644Z,100072.87
2024-01-06T03:43:36.166Z,100068.53
2024-01-06T03:44:40.365Z,100070.27
2024-01-06T03:45:45.171Z,100069.40
2024-01-06T03:46:51.940Z,100078.08
2024-01-06T03:47:55.220Z,100083.27
2024-01-06T03:48:59.701Z,100090.21
2024-01-06T03:50:06.289Z,100086.74
2024-01-06T03:51:13.285Z,100078.07
2024-01-06T03:52:19.366Z,100084.14
2024-01-06T03:53:31.460Z,100084.14
2024-01-06T03:54:34.829Z,100078.94
2024-01-06T03:55:40.737Z,100082.41
2024-01-06T03:56:52.331Z,100076.34
2024-01-06T03:57:58.632Z,100085.02
2024-01-06T03:59:02.939Z,100089.34
2024-01-06T04:00:07.780Z,100085.88
2024-01-06T04:01:13.573Z,100086.75
2024-01-06T04:02:21.461Z,100085.88
2024-01-06T04:03:25.098Z,100084.14
2024-01-06T04:04:28.548Z,100094.55
2024-01-06T04:05:31.328Z,100092.79
2024-01-06T04:06:38.098Z,100101.46
2024-01-06T04:07:42.928Z,100094.53
2024-01-06T04:08:48.198Z,100098.00
2024-01-06T04:10:01.466Z,100093.67
2024-01-06T04:11:11.228Z,100087.59
2024-01-06T04:12:16.026Z,100089.33
2024-01-06T04:13:24.273Z,100089.33
2024-01-06T04:14:30.413Z,100088.47
2024-01-06T04:15:37.652Z,100101.48
2024-01-06T04:16:40.715Z,100100.61
2024-01-06T04:17:47.196Z,100099.73
2024-01-06T04:18:54.443Z,100098.01
2024-01-06T04:19:57.815Z,100100.61
2024-01-06T04:21:08.822Z,100095.41
2024-01-06T04:22:18.105Z,100096.27
2024-01-06T04:23:29.299Z,100099.74
2024-01-06T04:24:40.823Z,100099.74
2024-01-06T04:25:45.953Z,100088.47
2024-01-06T04:26:52.642Z,100085.00
2024-01-06T04:27:54.961Z,100080.66
2024-01-06T04:28:59.501Z,100079.79
2024-01-06T04:30:08.054Z,100069.38
2024-01-06T04:31:12.456Z,100070.25
2024-01-06T04:32:25.729Z,100055.50
2024-01-06T04:33:30.782Z,100055.50
2024-01-06T04:34:38.049Z,100045.09
2024-01-06T04:35:40.844Z,100039.89
2024-01-06T04:36:44.217Z,100043.33
2024-01-06T04:37:48.966Z,100043.33
2024-01-06T04:38:53.447Z,100040.72
2024-01-06T04:39:58.369Z,100047.66
2024-01-06T04:41:03.982Z,100056.34
2024-01-06T04:42:09.598Z,100057.20
2024-01-06T04:43:15.969Z,100056.34
2024-01-06T04:44:23.902Z,100056.34
2024-01-06T04:45:30.304Z,100078.89
2024-01-06T04:46:36.769Z,100090.17
2024-01-06T04:47:41.767Z,100094.54
2024-01-06T04:48:44.526Z,100096.27
2024-01-06T04:51:12.824Z,100094.52
2024-01-06T04:52:18.160Z,100098.84
2024-01-06T04:53:22.848Z,100099.72
2024-01-06T04:54:27.883Z,100093.64
2024-01-06T04:55:36.040Z,100095.38
2024-01-06T04:56:40.408Z,100092.78
2024-01-06T04:57:45.783Z,100101.45
2024-01-06T05:00:15.754Z,100083.23
2024-01-06T05:01:22.257Z,100082.37
2024-01-06T05:03:51.643Z,100080.63
2024-01-06T05:04:55.297Z,100076.30
2024-01-06T05:06:04.819Z,100079.77
2024-01-06T05:07:16.362Z,100088.44
2024-01-06T05:08:24.324Z,100092.78
2024-01-06T05:09:31.728Z,100085.84
2024-01-06T05:10:36.354Z,100091.04
2024-01-06T05:11:44.745Z,100090.17
2024-01-06T05:12:52.433Z,100087.57
2024-01-06T05:13:55.332Z,100087.57
2024-01-06T05:14:59.318Z,100084.10
2024-01-06T05:16:11.211Z,100085.84
2024-01-06T05:17:20.081Z,100081.50
2024-01-06T05:18:26.623Z,100089.34
2024-01-06T05:19:34.659Z,100090.20
2024-01-06T05:20:41.144Z,100089.33
2024-01-06T05:21:49.073Z,100088.47
2024-01-06T05:22:56.817Z,100083.27
2024-01-06T05:24:10.640Z,100089.33
2024-01-06T05:25:20.443Z,100087.59
2024-01-06T05:26:24.265Z,100084.13
2024-01-06T05:27:27.845Z,100080.63
2024-01-06T05:28:30.022Z,100078.92
2024-01-06T05:29:32.698Z,100070.22
2024-01-06T05:30:35.024Z,100076.30
2024-01-06T05:31:37.999Z,100082.36
2024-01-06T05:32:40.911Z,100071.95
2024-01-06T05:33:43.270Z,100066.75
2024-01-06T05:34:47.219Z,100063.28
2024-01-06T05:35:49.701Z,100076.30
2024-01-06T05:36:52.142Z,100072.82
2024-01-06T05:37:54.484Z,100070.22
2024-01-06T05:38:56.857Z,100065.88
2024-01-06T05:39:59.310Z,100064.14
2024-01-06T05:41:01.575Z,100075.39
2024-01-06T05:42:03.920Z,100071.92
2024-01-06T05:43:06.083Z,100061.51
2024-01-06T05:44:08.198Z,100058.04
2024-01-06T05:46:23.436Z,100058.03
2024-01-06T05:47:25.976Z,100053.73
2024-01-06T05:48:28.892Z,100065.02
2024-01-06T05:49:31.391Z,100065.88
2024-01-06T05:50:33.777Z,100065.02
2024-01-06T05:51:36.757Z,100061.55
2024-01-06T05:52:39.360Z,100057.20
2024-01-06T05:53:41.546Z,100073.69
2024-01-06T05:54:44.231Z,100070.22
2024-01-06T05:55:47.064Z,100065.02
2024-01-06T05:56:49.525Z,100070.22
2024-01-06T05:57:51.904Z,100070.22
2024-01-06T05:58:54.735Z,100065.05
2024-01-06T05:59:57.846Z,100061.58
2024-01-06T06:01:00.444Z,100069.38
2024-01-06T06:02:02.780Z,100059.84
2024-01-06T06:03:05.287Z,100058.10
2024-01-06T06:04:07.657Z,100052.90
2024-01-06T06:05:10.621Z,100052.90
2024-01-06T06:06:13.827Z,100050.30
2024-01-06T06:07:15.991Z,100047.69
2024-01-06T06:08:18.253Z,100042.48
2024-01-06T06:09:22.811Z,100035.55
2024-01-06T06:10:25.666Z,100032.95
2024-01-06T06:11:28.162Z,100032.95
2024-01-06T06:12:30.295Z,100024.27
2024-01-06T06:13:32.909Z,100026.87
2024-01-06T06:14:35.602Z,100027.74
2024-01-06T06:15:37.804Z,100024.27
2024-01-06T06:16:40.177Z,100024.27
2024-01-06T06:17:43.352Z,100020.80
2024-01-06T06:18:45.619Z,100018.20
2024-01-06T06:19:49.027Z,100018.20
2024-01-06T06:20:52.470Z,100017.34
2024-01-06T06:21:55.141Z,100020.80
2024-01-06T06:22:57.760Z,100019.07
2024-01-06T06:23:59.839Z,100023.41
2024-01-06T06:25:02.059Z,100017.34
2024-01-06T06:26:06.269Z,100019.07
2024-01-06T06:27:08.957Z,100016.47
2024-01-06T06:28:11.485Z,100014.73
2024-01-06T06:29:14.048Z,100018.20
2024-01-06T06:30:17.553Z,100013.00
2024-01-06T06:31:20.513Z,100015.59
2024-01-06T06:32:24.033Z,100014.73
2024-01-06T06:33:26.402Z,100005.19
2024-01-06T06:34:29.036Z,100006.89
2024-01-06T06:35:31.206Z,100005.19
2024-01-06T06:36:33.433Z,100002.55
2024-01-06T06:37:35.885Z,100001.68
2024-01-06T06:38:38.031Z,99990.41
2024-01-06T06:39:40.329Z,99993.87
2024-01-06T06:40:42.836Z,99993.87
2024-01-06T06:41:45.274Z,100007.75
2024-01-06T06:42:48.076Z,100007.75
2024-01-06T06:43:50.084Z,100002.55
2024-01-06T06:44:52.661Z,100004.28
2024-01-06T06:45:54.990Z,100000.81
2024-01-06T06:46:57.613Z,100000.81
2024-01-06T06:47:59.904Z,99991.27
2024-01-06T06:49:02.839Z,99988.67
2024-01-06T06:50:06.208Z,99992.13
2024-01-06T06:51:08.432Z,99983.46
2024-01-06T06:52:11.158Z,99979.13
2024-01-06T06:53:13.328Z,99977.39
2024-01-06T06:54:16.231Z,99980.86
2024-01-06T06:55:20.460Z,99975.66
2024-01-06T06:56:25.117Z,99979.13
2024-01-06T06:57:28.437Z,99982.59
2024-01-06T06:58:31.253Z,99986.06
2024-01-06T06:59:33.499Z,99995.61
2024-01-06T07:00:36.681Z,99997.34
2024-01-06T07:01:39.072Z,99999.08
2024-01-06T07:02:41.631Z,99995.60
2024-01-06T07:03:44.540Z,99994.73
2024-01-06T07:04:47.414Z,99988.66
2024-01-06T07:05:50.234Z,99994.73
2024-01-06T07:06:52.727Z,99999.94
2024-01-06T07:07:55.501Z,100001.67
2024-01-06T07:08:57.732Z,100005.97
2024-01-06T07:10:02.276Z,100010.31
2024-01-06T07:11:05.001Z,100021.59
2024-01-06T07:12:07.694Z,100012.91
2024-01-06T07:13:09.950Z,100016.37
2024-01-06T07:14:12.057Z,100013.77
2024-01-06T07:15:14.610Z,100018.12
2024-01-06T07:16:19.837Z,99999.02
2024-01-06T07:17:23.160Z,100005.97
2024-01-06T07:18:26.097Z,100008.56
2024-01-06T07:19:30.004Z,100013.77
2024-01-06T07:20:33.409Z,100010.30
2024-01-06T07:21:35.676Z,100011.17
2024-01-06T07:22:37.945Z,100008.56
2024-01-06T07:23:41.241Z,100004.22
2024-01-06T07:24:43.580Z,99999.88
2024-01-06T07:25:46.424Z,100002.45
2024-01-06T07:26:50.944Z,99999.84
2024-01-06T07:27:55.688Z,100000.70
2024-01-06T07:28:58.133Z,100000.70
2024-01-06T07:30:04.256Z,100000.70
2024-01-06T07:31:07.225Z,100005.91
2024-01-06T07:32:09.980Z,100000.69
2024-01-06T07:33:12.266Z,100005.89
2024-01-06T07:34:14.510Z,100007.59
2024-01-06T07:35:16.729Z,100009.37
2024-01-06T07:36:19.665Z,100011.06
2024-01-06T07:37:22.449Z,100005.89
2024-01-06T07:38:26.953Z,100003.25
2024-01-06T07:39:30.069Z,100004.16
2024-01-06T07:40:32.734Z,99995.48
2024-01-06T07:41:35.425Z,99998.95
2024-01-06T07:42:37.972Z,99992.88
2024-01-06T07:43:40.526Z,99986.81
2024-01-06T07:44:43.300Z,99979.01
2024-01-06T07:45:46.269Z,99985.08
2024-01-06T07:46:49.207Z,99980.75
2024-01-06T07:47:51.789Z,99980.75
2024-01-06T07:48:54.427Z,99978.14
2024-01-06T07:49:57.804Z,99983.35
2024-01-06T07:51:00.168Z,99980.75
2024-01-06T07:52:02.369Z,99978.15
2024-01-06T07:53:05.182Z,99972.94
2024-01-06T07:54:08.485Z,99979.01
2024-01-06T07:55:11.349Z,99980.73
2024-01-06T07:56:15.391Z,99985.08
2024-01-06T07:57:17.583Z,99992.01
2024-01-06T07:58:21.692Z,99992.87
2024-01-06T07:59:23.932Z,100000.69
2024-01-06T08:00:27.120Z,99998.91
2024-01-06T08:01:30.198Z,99999.78
2024-01-06T08:02:32.419Z,99996.30
2024-01-06T08:03:34.743Z,99992.87
2024-01-06T08:04:37.149Z,100000.64
2024-01-06T08:05:39.773Z,99994.56
2024-01-06T08:06:42.845Z,99994.55
2024-01-06T08:07:45.072Z,100000.63
2024-01-06T08:08:50.462Z,99991.94
2024-01-06T08:09:52.872Z,99992.80
2024-01-06T08:10:55.162Z,99996.27
2024-01-06T08:11:57.402Z,99998.00
2024-01-06T08:13:00.908Z,99992.76
2024-01-06T08:14:03.670Z,99992.74
2024-01-06T08:15:06.407Z,99993.59
2024-01-06T08:16:09.101Z,99990.98
2024-01-06T08:17:11.494Z,99983.98
2024-01-06T08:18:14.282Z,99990.94
2024-01-06T08:19:17.797Z,99988.31
2024-01-06T08:20:22.878Z,99991.79
2024-01-06T08:21:25.244Z,99995.26
2024-01-06T08:22:27.520Z,99995.25
2024-01-06T08:23:30.375Z,99991.77
2024-01-06T08:24:33.295Z,99981.33
2024-01-06T08:25:36.654Z,99981.28
2024-01-06T08:26:39.135Z,99975.19
2024-01-06T08:27:42.606Z,99969.98
2024-01-06T08:28:46.086Z,99976.05
2024-01-06T08:29:49.617Z,99979.53
2024-01-06T08:30:52.319Z,99976.07
2024-01-06T08:31:54.912Z,99977.80
2024-01-06T08:32:57.558Z,99973.47
2024-01-06T08:34:01.075Z,99972.59
2024-01-06T08:35:04.133Z,99971.73
2024-01-06T08:36:07.188Z,99968.25
2024-01-06T08:37:09.589Z,99970.84
2024-01-06T08:38:11.801Z,99969.98
2024-01-06T08:39:14.799Z,99974.31
2024-01-06T08:40:17.645Z,99972.58
2024-01-06T08:41:21.830Z,99978.65
2024-01-06T08:42:24.103Z,99980.38
2024-01-06T08:43:26.736Z,99975.98
2024-01-06T08:44:29.622Z,99968.15
2024-01-06T08:45:31.911Z,99975.97
2024-01-06T08:46:34.322Z,99963.80
2024-01-06T08:47:36.736Z,99966.38
2024-01-06T08:48:39.180Z,99961.18
2024-01-06T08:49:42.187Z,99950.72
2024-01-06T08:50:45.289Z,99959.39
2024-01-06T08:51:47.517Z,99950.64
2024-01-06T08:52:50.844Z,99958.45
2024-01-06T08:53:53.176Z,99967.12
2024-01-06T08:54:56.505Z,99972.34
2024-01-06T08:55:58.884Z,99960.16
2024-01-06T08:57:01.293Z,99967.12
2024-01-06T08:58:04.247Z,99969.73
2024-01-06T08:59:06.944Z,99968.86
2024-01-06T09:00:10.730Z,99975.80
2024-01-06T09:01:13.106Z,99970.59
2024-01-06T09:02:16.271Z,99970.60
2024-01-06T09:03:20.879Z,99980.16
2024-01-06T09:04:24.406Z,99969.72
2024-01-06T09:05:26.787Z,99966.22
2024-01-06T09:06:29.580Z,99967.11
2024-01-06T09:07:31.959Z,99961.88
2024-01-06T09:08:34.503Z,99964.48
2024-01-06T09:09:37.141Z,99967.97
2024-01-06T09:10:41.602Z,99960.14
2024-01-06T09:11:43.967Z,99960.16
2024-01-06T09:12:46.189Z,99967.09
2024-01-06T09:13:48.918Z,99963.63
2024-01-06T09:14:51.494Z,99964.48
2024-01-06T09:15:55.434Z,99962.75
2024-01-06T09:16:59.302Z,99964.48
2024-01-06T09:18:01.680Z,99964.48
2024-01-06T09:19:04.298Z,99961.88
2024-01-06T09:20:07.670Z,99956.67
2024-01-06T09:21:11.217Z,99951.45
2024-01-06T09:22:14.102Z,99953.19
2024-01-06T09:23:16.990Z,99958.36
2024-01-06T09:24:20.032Z,99956.60
2024-01-06T09:25:24.711Z,99951.38
2024-01-06T09:26:27.820Z,99962.66
2024-01-06T09:27:30.680Z,99960.03
2024-01-06T09:28:33.501Z,99956.48
2024-01-06T09:29:36.935Z,99954.73
2024-01-06T09:30:40.002Z,99955.59
2024-01-06T09:31:42.565Z,99959.08
2024-01-06T09:32:45.057Z,99958.20
2024-01-06T09:33:47.718Z,99951.25
2024-01-06T09:34:50.484Z,99952.98
2024-01-06T09:35:53.722Z,99959.92
2024-01-06T09:36:56.313Z,99958.20
2024-01-06T09:37:59.061Z,99955.58
2024-01-06T09:39:01.299Z,99955.55
2024-01-06T09:40:04.475Z,99940.77
2024-01-06T09:41:07.439Z,99935.55
2024-01-06T09:42:09.921Z,99939.89
2024-01-06T09:43:13.732Z,99932.06
2024-01-06T09:44:17.131Z,99933.79
2024-01-06T09:45:20.347Z,99923.30
2024-01-06T09:46:28.508Z,99927.68
2024-01-06T09:47:34.569Z,99929.38
2024-01-06T09:48:40.644Z,99918.94
2024-01-06T09:50:59.245Z,99907.56
2024-01-06T09:52:03.327Z,99925.16
2024-01-06T09:53:06.115Z,99916.45
2024-01-06T09:54:14.146Z,99907.77
2024-01-06T09:55:17.346Z,99912.99
2024-01-06T09:56:20.395Z,99904.27
2024-01-06T09:57:24.977Z,99897.31
2024-01-06T09:58:27.795Z,99899.09
2024-01-06T09:59:31.046Z,99886.92
2024-01-06T10:00:33.561Z,99892.20
2024-01-06T10:01:36.346Z,99887.85
2024-01-06T10:02:38.633Z,99884.38
2024-01-06T10:03:42.914Z,99875.68
2024-01-06T10:04:45.329Z,99871.31
2024-01-06T10:05:47.538Z,99874.83
2024-01-06T10:06:50.068Z,99873.09
2024-01-06T10:07:53.001Z,99880.04
2024-01-06T10:08:55.131Z,99874.83
2024-01-06T10:09:58.124Z,99869.61
2024-01-06T10:11:01.960Z,99867.86
2024-01-06T10:12:05.080Z,99862.67
2024-01-06T10:13:08.013Z,99859.17
2024-01-06T10:14:11.132Z,99863.54
2024-01-06T10:15:13.563Z,99859.17
2024-01-06T10:16:18.410Z,99846.13
2024-01-06T10:17:21.264Z,99847.87
2024-01-06T10:18:26.070Z,99844.39
2024-01-06T10:19:29.036Z,99835.70
2024-01-06T10:20:32.167Z,99832.20
2024-01-06T10:21:34.832Z,99834.80
2024-01-06T10:23:50.968Z,99838.11
2024-01-06T10:24:55.453Z,99843.44
2024-01-06T10:25:59.670Z,99846.87
2024-01-06T10:27:02.245Z,99849.47
2024-01-06T10:28:05.257Z,99850.31
2024-01-06T10:29:07.973Z,99850.30
2024-01-06T10:30:11.562Z,99852.03
2024-01-06T10:31:14.003Z,99843.28
2024-01-06T10:32:17.998Z,99849.33
2024-01-06T10:33:24.741Z,99851.94
2024-01-06T10:34:28.241Z,99839.74
2024-01-06T10:35:31.628Z,99843.20
2024-01-06T10:36:34.071Z,99855.34
2024-01-06T10:37:38.017Z,99855.34
2024-01-06T10:38:41.143Z,99860.56
2024-01-06T10:39:43.576Z,99850.05
2024-01-06T10:41:03.529Z,99851.78
2024-01-06T10:42:07.812Z,99845.67
2024-01-06T10:43:11.096Z,99847.41
2024-01-06T10:44:14.787Z,99850.02
2024-01-06T10:45:17.799Z,99850.89
2024-01-06T10:46:20.631Z,99849.16
2024-01-06T10:47:23.689Z,99843.08
2024-01-06T10:48:27.759Z,99843.08
2024-01-06T10:49:31.407Z,99838.70
2024-01-06T10:50:34.677Z,99837.86
2024-01-06T10:51:40.399Z,99837.83
2024-01-06T10:52:44.132Z,99836.94
2024-01-06T10:53:50.015Z,99829.09
2024-01-06T10:54:57.667Z,99829.11
2024-01-06T10:56:02.356Z,99831.73
2024-01-06T10:57:06.759Z,99823.92
2024-01-06T10:58:10.713Z,99825.66
2024-01-06T10:59:14.114Z,99817.84
2024-01-06T11:00:17.758Z,99816.08
2024-01-06T11:01:26.170Z,99821.30
2024-01-06T11:02:28.710Z,99813.45
2024-01-06T11:03:32.370Z,99812.57
2024-01-06T11:04:36.326Z,99804.76
2024-01-06T11:05:40.874Z,99808.23
2024-01-06T11:06:44.832Z,99809.96
2024-01-06T11:07:47.841Z,99809.96
2024-01-06T11:09:22.662Z,99812.55
2024-01-06T11:10:25.989Z,99816.91
2024-01-06T11:11:29.378Z,99809.05
2024-01-06T11:12:32.238Z,99815.15
2024-01-06T11:13:34.944Z,99806.47
2024-01-06T11:14:38.092Z,99809.08
2024-01-06T11:15:44.967Z,99793.42
2024-01-06T11:16:48.088Z,99797.73
2024-01-06T11:17:52.844Z,99800.33
2024-01-06T11:18:56.172Z,99802.95
2024-01-06T11:20:09.283Z,99806.35
2024-01-06T11:21:21.421Z,99803.73
2024-01-06T11:22:29.201Z,99797.62
2024-01-06T11:23:31.563Z,99795.85
2024-01-06T11:24:38.903Z,99802.77
2024-01-06T11:25:41.820Z,99796.65
2024-01-06T11:26:45.548Z,99810.52
2024-01-06T11:27:50.643Z,99813.98
2024-01-06T11:28:53.173Z,99816.56
2024-01-06T11:30:00.127Z,99813.03
2024-01-06T11:31:07.994Z,99806.08
2024-01-06T11:32:37.894Z,99805.22
2024-01-06T11:33:47.750Z,99810.42
2024-01-06T11:34:54.791Z,99810.38
2024-01-06T11:35:57.235Z,99815.61
2024-01-06T11:37:00.077Z,99806.05
2024-01-06T11:38:02.529Z,99805.16
2024-01-06T11:39:06.871Z,99803.39
2024-01-06T11:40:25.273Z,99807.75
2024-01-06T11:41:49.360Z,99810.31
2024-01-06T11:43:00.775Z,99807.70
2024-01-06T11:44:02.930Z,99802.46
2024-01-06T11:45:06.690Z,99802.48
2024-01-06T11:46:12.030Z,99801.65
2024-01-06T11:47:15.187Z,99799.87
2024-01-06T11:48:18.507Z,99794.63
2024-01-06T11:49:26.423Z,99795.56
2024-01-06T11:50:33.486Z,99793.81
2024-01-06T11:51:36.776Z,99798.09
2024-01-06T11:52:41.856Z,99794.59
2024-01-06T11:53:45.027Z,99798.06
2024-01-06T11:54:48.245Z,99798.91
2024-01-06T11:55:50.389Z,99793.64
2024-01-06T11:56:52.839Z,99798.83
2024-01-06T11:57:56.147Z,99804.92
2024-01-06T11:58:59.494Z,99803.09
2024-01-06T12:00:01.965Z,99804.86
2024-01-06T12:01:06.399Z,99803.11
2024-01-06T12:02:13.256Z,99810.00
2024-01-06T12:03:16.544Z,99815.25
2024-01-06T12:04:19.843Z,99808.28
2024-01-06T12:05:22.646Z,99797.81
2024-01-06T12:06:25.048Z,99795.23
2024-01-06T12:07:27.295Z,99805.66
2024-01-06T12:08:30.034Z,99794.35
2024-01-06T12:09:33.266Z,99793.45
2024-01-06T12:10:35.666Z,99803.05
2024-01-06T12:11:38.299Z,99805.63
2024-01-06T12:12:40.777Z,99803.86
2024-01-06T12:13:43.212Z,99802.95
2024-01-06T12:14:46.360Z,99802.03
2024-01-06T12:15:49.352Z,99805.47
2024-01-06T12:16:52.623Z,99799.40
2024-01-06T12:17:55.897Z,99799.38
2024-01-06T12:18:59.724Z,99795.86
2024-01-06T12:20:03.167Z,99801.92
2024-01-06T12:21:05.724Z,99807.16
2024-01-06T12:22:10.540Z,99804.54
2024-01-06T12:23:13.898Z,99808.84
2024-01-06T12:24:18.558Z,99816.66
2024-01-06T12:25:24.089Z,99817.47
2024-01-06T12:26:26.762Z,99809.63
2024-01-06T12:27:29.016Z,99814.83
2024-01-06T12:28:31.527Z,99808.72
2024-01-06T12:29:34.086Z,99804.33
2024-01-06T12:30:36.551Z,99803.45
2024-01-06T12:32:57.390Z,99811.88
2024-01-06T12:34:00.357Z,99799.98
2024-01-06T12:35:03.425Z,99797.35
2024-01-06T12:36:13.969Z,99794.77
2024-01-06T12:37:14.901Z,99800.86
2024-01-06T12:38:20.638Z,99800.81
2024-01-06T12:39:22.957Z,99798.17
2024-01-06T12:40:25.000Z,99804.24
2024-01-06T12:41:31.476Z,99799.91